Create Custom Reports and Graphics: Custom Report

Bell Hill West (BHR)

Current Conditions

8/19/19 5:15 AM (-07:00)
Updated Every 15 Minutes
Temp 55.4 °F   2.1
RH 89 %   6
Dew Pt 52.2 °F   0.4
Wet Bulb 54.6 °F   1.1
Wind Dir S | 191 °
Wind Spd 2.6 mph   2.6
Wind Gust 3.3 mph   3.3
Solar Rad 0 W/m2   0
Daily Min Temp 55.2 °F   2.3
Daily Max Temp 62.1 °F   0.5
Latest Rain 0.00 In
Daily Rain 0.00 In

Bell Hill West

Last 24 Hours

Hourly Data | America/Los_Angeles
as of 8/19/19 5:20 AM PDT
Date & Time Temp (°F) RH (%) Dew Pt (°F) Wet Bulb (°F) Leaf Wet (mins) Wind Dir (°) Wind Spd (mph) Wind Gust (mph) Solar Rad (W/m2) Latest Rain (In) Daily Rain (In) Daily Min Temp (°F) Daily Max Temp (°F)
8/19/19 - 0500 55.7 89 52.5 54.9 0.0 SSW | 193 2.7 4.8 0 0.00 0.00 55.6 62.1
8/19/19 - 0400 56.7 87 52.6 55.5 0.0 SSW | 197 2.5 3.9 0 0.00 0.00 55.9 62.1
8/19/19 - 0300 58.1 84 53.5 56.4 0.0 SSW | 196 2.3 3.4 0 0.00 0.00 57.6 62.1
8/19/19 - 0200 60.7 79 53.8 57.9 0.0 S | 185 1.8 4.4 0 0.00 0.00 58.8 62.1
8/19/19 - 0100 61.4 78 54.8 58.5 0.2 S | 191 1.7 4.3 0 0.00 0.00 55.5 86.3
8/19/19 - 0000 63.4 75 54.8 59.5 0.2 SSW | 192 0.9 2.9 0 0.00 0.00 55.5 86.3
8/18/19 - 2300 65.4 71 55.6 60.5 0.2 SSW | 206 0.6 2.9 0 0.00 0.00 55.5 86.3
8/18/19 - 2200 68.7 64 56.2 61.7 0.2 S | 185 3.4 7.3 0 0.00 0.00 55.5 86.3
8/18/19 - 2100 71.0 60 56.5 62.6 0.2 SSW | 195 4.4 7.4 1 0.00 0.00 55.5 86.3
8/18/19 - 2000 74.9 54 56.9 63.6 0.2 SSW | 200 5.8 11.3 61 0.00 0.00 55.5 86.3
8/18/19 - 1900 78.5 47 56.8 64.2 0.2 SSW | 199 7.9 14.2 245 0.00 0.00 55.5 86.3
8/18/19 - 1800 81.0 41 55.9 63.8 0.2 SSW | 204 8.7 13.5 453 0.00 0.00 55.5 86.3
8/18/19 - 1700 82.5 39 55.1 63.7 0.2 SSW | 203 8.2 14.3 650 0.00 0.00 55.5 86.3
8/18/19 - 1600 82.7 39 54.9 63.9 0.2 SSW | 203 9.3 16.3 810 0.00 0.00 55.5 86.3
8/18/19 - 1500 83.4 37 54.8 63.8 0.2 SSW | 207 9.2 15.8 923 0.00 0.00 55.5 86.3
8/18/19 - 1400 83.6 38 55.1 64.1 0.1 WSW | 250 7.5 13.2 980 0.00 0.00 55.5 86.3
8/18/19 - 1300 84.8 29 54.5 61.1 0.1 NNE | 14 4.3 11.8 979 0.00 0.00 55.5 86.3
8/18/19 - 1200 80.4 45 55.4 64.7 0.1 N | 9 2.8 9.5 898 0.00 0.00 55.5 83.4
8/18/19 - 1100 75.1 58 58.2 65.2 0.0 NNE | 13 2.9 7.3 764 0.00 0.00 55.5 78.4
8/18/19 - 1000 71.6 63 58.8 63.8 0.0 NNE | 25 3.4 6.4 588 0.00 0.00 55.5 73.0
8/18/19 - 0900 68.2 64 56.9 61.0 0.0 ENE | 70 1.2 4.3 380 0.00 0.00 55.5 70.4
8/18/19 - 0800 59.9 79 54.3 56.9 0.0 S | 178 0.8 3.6 163 0.00 0.00 55.5 64.3
8/18/19 - 0700 55.9 86 52.0 54.6 0.0 SSW | 195 1.3 3.6 9 0.00 0.00 55.5 62.6
8/18/19 - 0600 57.0 84 52.0 55.3 0.0 N | 0 0.0 0.0 0 0.00 0.00 56.1 62.6
8/18/19 - 0500 58.3 82 52.8 56.2 0.0 SSW | 193 1.0 3.6 0 0.00 0.00 57.7 62.6
Max 84.8 89 58.8 65.2 0.2 - 9.3 16.3 980 0.00 0.00 58.8 86.3
Avg 69.6 63 55.0 60.5 0.1 - 3.8 7.6 316 0.00 - - -
Min 55.7 29 52.0 54.6 0.0 - 0.0 0.0 0 0.00 0.00 55.5 62.1
Total - - - - - - - - - 0.00 - - -

Bell Hill West - Daily Summary

Last 30 Days

Daily Data | America/Los_Angeles
as of 8/19/19 5:20 AM PDT
Date Daily Max Temp (°F) Max Temp Time Daily Min Temp (°F) Min Temp Time Daily Rain (In) Seasonal Rainfall (In) Wind Spd (mph) Daily Max Wind (mph) Max Wind Time Max Wind Dir (°) Dew Pt (°F) Max RH (%) Min RH (%) Daily Solar Rad (Cal/cm2) Daily ETo (in) GDDs (DL) Chill Hrs <=45 (hrs) Hrs <= 32F (hrs) Hrs <= 28F (hrs) Hrs 70-85F (hrs) Hrs > 95F (hrs) Powdery Mildew Stress (pts) Leaf Wet (hrs) Bat Volt Min Day (V)
8/18/19 86.3 1227 55.5 0633 0.00 0.00 3.6 16.3 1504 SSW | 203 54.9 88 21 680 0.24 20.39 0.0 0.0 0.0 11.50 0.00 20 1.0 12.15
8/17/19 92.3 1449 57.5 0649 0.00 0.00 3.4 13.6 1817 S | 180 53.0 77 25 671 0.25 24.87 0.0 0.0 0.0 3.60 0.00 0 1.0 12.14
8/16/19 99.0 1539 60.4 0645 0.00 0.00 3.5 15.2 1733 SSW | 194 51.9 73 16 675 0.26 29.47 0.0 0.0 0.0 2.94 4.67 0 1.0 12.14
8/15/19 102.0 1539 60.1 0631 0.00 0.00 3.0 12.3 1636 WSW | 243 50.9 75 11 685 0.26 30.25 0.0 0.0 0.0 3.25 5.91 10 1.0 12.14
8/14/19 99.9 1652 56.2 0554 0.00 0.00 2.2 12.6 1755 WSW | 251 47.3 67 13 689 0.24 27.54 0.0 0.0 0.0 2.73 4.33 20 1.0 12.12
8/13/19 95.4 1657 54.7 0643 0.00 0.00 1.6 11.5 1443 NNW | 330 49.3 76 18 685 0.23 24.71 0.0 0.0 0.0 3.23 0.18 30 1.0 12.15
8/12/19 90.8 1558 51.9 0619 0.00 0.00 2.7 12.6 1650 W | 260 47.3 84 15 697 0.25 21.33 0.0 0.0 0.0 3.72 0.00 40 1.0 12.15
8/11/19 86.4 1549 50.1 0634 0.00 0.00 2.4 14.2 1705 WNW | 284 48.0 92 19 698 0.23 17.51 0.0 0.0 0.0 5.04 0.00 50 1.0 12.12
8/10/19 77.2 1538 55.4 0057 0.00 0.00 2.7 15.0 1536 W | 277 53.6 93 35 634 0.19 15.89 0.0 0.0 0.0 9.46 0.00 60 1.3 12.11
8/9/19 82.3 1537 54.0 0324 0.00 0.00 2.6 13.8 1753 SW | 228 49.3 85 30 572 0.20 17.31 0.0 0.0 0.0 9.36 0.00 40 1.3 12.13
8/8/19 81.4 1505 50.2 0629 0.00 0.00 3.3 16.5 1625 WSW | 248 49.1 90 22 689 0.23 14.80 0.0 0.0 0.0 8.01 0.00 20 1.0 12.13
8/7/19 90.4 1339 53.8 0053 0.00 0.00 2.7 14.2 1553 WSW | 251 49.1 82 13 716 0.26 21.26 0.0 0.0 0.0 3.36 0.00 0 1.0 12.14
8/6/19 94.3 1447 60.8 0323 0.00 0.00 1.7 13.5 1827 S | 178 51.1 79 11 663 0.24 26.03 0.0 0.0 0.0 3.04 0.00 0 1.0 12.16
8/5/19 94.3 1515 56.9 0616 0.00 0.00 1.9 13.8 1602 SW | 227 53.1 87 14 612 0.22 24.64 0.0 0.0 0.0 3.44 0.00 0 1.4 12.16
8/4/19 93.3 1446 55.6 0623 0.00 0.00 2.3 15.0 1733 S | 191 54.1 85 23 709 0.26 25.17 0.0 0.0 0.0 3.21 0.00 0 1.0 12.13
8/3/19 95.3 1640 55.1 0622 0.00 0.00 2.7 13.0 1740 W | 269 50.2 80 17 717 0.26 25.16 0.0 0.0 0.0 3.14 0.04 0 1.0 12.16
8/2/19 90.6 1553 53.7 0533 0.00 0.00 2.2 14.5 1512 W | 270 51.6 87 22 719 0.25 21.74 0.0 0.0 0.0 3.72 0.00 0 1.0 12.14
8/1/19 89.7 1408 57.6 0625 0.00 0.00 2.7 15.2 1428 SSW | 207 52.0 77 28 712 0.25 22.61 0.0 0.0 0.0 4.09 0.00 0 1.0 12.14
7/31/19 92.1 1457 55.3 0620 0.00 0.00 1.6 14.2 1556 S | 179 51.2 84 14 723 0.24 24.24 0.0 0.0 0.0 3.74 0.00 0 1.0 12.14
7/30/19 89.1 1651 50.8 0605 0.00 0.00 1.4 13.0 1409 W | 275 51.9 84 25 725 0.23 21.13 0.0 0.0 0.0 3.23 0.00 0 1.0 12.13
7/29/19 89.1 1335 56.2 0623 0.00 0.00 3.6 14.3 1400 SW | 216 50.2 78 24 740 0.27 22.25 0.0 0.0 0.0 4.03 0.00 0 1.0 12.15
7/28/19 99.7 1406 57.3 0635 0.00 0.00 3.2 14.6 1653 WSW | 241 50.4 78 11 727 0.28 28.13 0.0 0.0 0.0 2.87 4.38 10 1.0 12.13
7/27/19 100.0 1648 53.8 0623 0.00 0.00 3.0 12.1 1713 SSW | 199 45.7 75 7 741 0.27 27.74 0.0 0.0 0.0 3.18 5.20 20 1.0 12.13
7/26/19 94.2 1513 53.4 0607 0.00 0.00 3.4 14.6 1625 S | 178 40.9 61 9 742 0.28 24.46 0.0 0.0 0.0 3.04 0.00 30 1.0 12.14
7/25/19 96.1 1339 57.3 0548 0.00 0.00 2.4 15.8 1620 S | 190 39.5 67 7 624 0.23 24.88 0.0 0.0 0.0 3.00 0.84 40 1.2 12.15
7/24/19 97.2 1646 52.0 0625 0.00 0.00 2.6 14.2 1511 S | 185 43.1 73 8 735 0.26 24.61 0.0 0.0 0.0 3.61 3.57 50 1.0 12.12
7/23/19 93.0 1437 55.2 0629 0.00 0.00 3.1 14.2 1514 WSW | 255 44.2 77 9 753 0.28 23.78 0.0 0.0 0.0 3.22 0.00 60 1.0 12.13
7/22/19 93.0 1534 57.3 0608 0.00 0.00 1.7 14.6 1516 SSW | 202 53.0 86 19 733 0.25 25.92 0.0 0.0 0.0 3.72 0.00 70 1.0 12.17
7/21/19 90.5 1404 57.5 0545 0.00 0.00 2.1 14.3 1628 SSW | 203 54.2 89 21 722 0.25 25.15 0.0 0.0 0.0 3.12 0.00 80 1.2 12.15
7/20/19 86.4 1226 58.1 0539 0.00 0.00 2.1 14.5 1359 W | 272 57.0 87 33 731 0.25 22.97 0.0 0.0 0.0 6.18 0.00 90 1.0 12.17
Max 102.0 - 60.8 - 0.00 - 3.6 16.5 - - 57.0 93 35 753 0.28 30.25 0.0 0.0 0.0 11.50 5.91 90 1.4 12.17
Avg - - - - - - 2.6 - - - 49.9 - - - - 23.53 0.0 0.0 0.0 4.33 0.97 - - -
Min 77.2 - 50.1 - 0.00 - 1.4 11.5 - - 39.5 61 7 572 0.19 14.80 0.0 0.0 0.0 2.73 0.00 0 1.0 12.11
Total - - - - - - - - - - - - - - - 705.94 0.0 0.0 0.0 129.79 29.12 - - -

Bell Hill West Climate Summary

Current Yeaer

Current Year | Showing 1/1/19 - 8/18/19
as of 8/19/19 5:20 AM PDT
Temperature (°F) Precip (in) Days
Month Days Avg Max Avg Min Max Max Min Min Total Daily Min Temp < 28 Daily Min Temp < 32 Daily Max Temp > 90 Daily Max Temp > 100 Daily Rain > 0.01 Daily Rain > 0.1
Jan 2019 31 56.8 36.2 71.5 24.5 10.09 3 8 0 0 12 11
Feb 2019 28 49.5 33.4 56.5 21.5 17.41 10 14 0 0 17 14
Mar 2019 31 58.8 36.4 74.6 26.8 4.4 1 6 0 0 12 10
Apr 2019 30 70.5 44 88.6 33.2 0.38 0 0 0 0 4 1
May 2019 31 72.1 44.7 85.2 36.4 2.59 0 0 0 0 6 5
Jun 2019 30 87.1 51.7 98.2 41.6 0 0 0 10 0 0 0
Jul 2019 31 89.5 54 100 47.1 0 0 0 14 0 0 0
Aug 2019 18 91.2 55.5 102 50.1 0 0 0 12 1 0 0
Total 230 - - - - 34.87 14 28 36 1 51 41
Average 28.8 71.9 44.5 - - 4.36 1.8 3.5 4.5 0.1 6.4 5.1
Maximum 31 91.2 55.5 102 - 17.41 10 14 14 1 17 14
Minimum 18 49.5 33.4 - 21.5 0 0 0 0 0 0 0

Bell Hill West Climate Summary

Last Year

Last Year | Showing 1/1/18 - 12/31/18
as of 8/19/19 5:20 AM PDT
Temperature (°F) Precip (in) Days
Month Days Avg Max Avg Min Max Max Min Min Total Daily Min Temp < 28 Daily Min Temp < 32 Daily Max Temp > 90 Daily Max Temp > 100 Daily Rain > 0.01 Daily Rain > 0.1
Jan 2018 31 55.8 33.2 68.2 -40 6.62 3 10 0 0 15 9
Feb 2018 28 62 28.9 78.8 19.4 0.75 15 17 0 0 3 2
Mar 2018 31 59.9 34.1 82.6 23.8 6.24 5 11 0 0 16 13
Apr 2018 30 67.3 37.4 82.3 -40 3.01 1 2 0 0 7 7
May 2018 31 75.9 42.6 92.8 -40 0.12 1 1 1 0 2 0
Jun 2018 30 85.9 49.2 99.3 38.4 0 0 0 8 0 0 0
Jul 2018 31 93.9 56.5 103 47.8 0 0 0 24 4 0 0
Aug 2018 31 90.1 49.1 98 -40 0 1 1 16 0 0 0
Sep 2018 29 86.4 46.3 97.2 40.1 0.08 0 0 14 0 1 0
Oct 2018 31 77 42.1 86.4 32.4 1.04 0 0 0 0 4 2
Nov 2018 30 66 33.9 81.6 23.6 4.82 9 14 0 0 7 7
Dec 2018 31 54.8 33.2 62.3 25.4 3.2 2 15 0 0 11 5
Total 364 - - - - 25.88 37 71 63 4 66 45
Average 30.3 72.9 40.5 - - 2.16 3.1 5.9 5.2 0.3 5.5 3.8
Maximum 31 93.9 56.5 103 - 6.62 15 17 24 4 16 13
Minimum 28 54.8 28.9 - -40 0 0 0 0 0 0 0
Calm: 7.2%
Calm: 5.0%